sensor_id;sensor_type;location;lat;lon;timestamp;pressure;altitude;pressure_sealevel;temperature;humidity
53908;BME280;40469;47.998;7.794;2022-10-23T00:01:37;98957.56;;;12.73;100.00
53908;BME280;40469;47.998;7.794;2022-10-23T00:06:31;98948.81;;;12.74;100.00
53908;BME280;40469;47.998;7.794;2022-10-23T00:08:57;98946.13;;;12.77;100.00
53908;BME280;40469;47.998;7.794;2022-10-23T00:11:25;98940.00;;;12.78;100.00
53908;BME280;40469;47.998;7.794;2022-10-23T00:13:53;98938.28;;;12.76;100.00
53908;BME280;40469;47.998;7.794;2022-10-23T00:16:18;98938.38;;;12.73;100.00
53908;BME280;40469;47.998;7.794;2022-10-23T00:18:44;98932.13;;;12.78;100.00
53908;BME280;40469;47.998;7.794;2022-10-23T00:21:11;98929.63;;;12.72;100.00
53908;BME280;40469;47.998;7.794;2022-10-23T00:23:36;98928.09;;;12.62;100.00
53908;BME280;40469;47.998;7.794;2022-10-23T00:26:03;98932.50;;;12.58;100.00
53908;BME280;40469;47.998;7.794;2022-10-23T00:28:28;98927.25;;;12.58;100.00
53908;BME280;40469;47.998;7.794;2022-10-23T00:30:54;98931.63;;;12.58;100.00
53908;BME280;40469;47.998;7.794;2022-10-23T00:33:19;98930.75;;;12.60;100.00
53908;BME280;40469;47.998;7.794;2022-10-23T00:35:44;98929.81;;;12.63;100.00
53908;BME280;40469;47.998;7.794;2022-10-23T00:38:10;98934.94;;;12.69;100.00
53908;BME280;40469;47.998;7.794;2022-10-23T00:40:36;98929.59;;;12.74;100.00
53908;BME280;40469;47.998;7.794;2022-10-23T00:43:03;98925.91;;;12.84;100.00
53908;BME280;40469;47.998;7.794;2022-10-23T00:45:30;98929.13;;;12.97;100.00
53908;BME280;40469;47.998;7.794;2022-10-23T00:47:58;98930.84;;;12.99;100.00
53908;BME280;40469;47.998;7.794;2022-10-23T00:50:26;98926.41;;;13.03;100.00
53908;BME280;40469;47.998;7.794;2022-10-23T00:52:55;98924.44;;;13.13;100.00
53908;BME280;40469;47.998;7.794;2022-10-23T00:55:22;98922.16;;;12.97;100.00
53908;BME280;40469;47.998;7.794;2022-10-23T00:57:50;98913.41;;;12.97;100.00
53908;BME280;40469;47.998;7.794;2022-10-23T01:00:26;98912.03;;;12.79;100.00
53908;BME280;40469;47.998;7.794;2022-10-23T01:02:52;98914.59;;;12.82;100.00
53908;BME280;40469;47.998;7.794;2022-10-23T01:05:23;98913.13;;;12.67;100.00
53908;BME280;40469;47.998;7.794;2022-10-23T01:08:16;98919.47;;;12.55;100.00
53908;BME280;40469;47.998;7.794;2022-10-23T01:10:44;98912.69;;;12.43;100.00
53908;BME280;40469;47.998;7.794;2022-10-23T01:13:19;98907.59;;;12.37;100.00
53908;BME280;40469;47.998;7.794;2022-10-23T01:16:23;98913.66;;;12.39;100.00
53908;BME280;40469;47.998;7.794;2022-10-23T01:22:05;98915.88;;;12.12;100.00
53908;BME280;40469;47.998;7.794;2022-10-23T01:24:35;98912.38;;;12.12;100.00
53908;BME280;40469;47.998;7.794;2022-10-23T01:29:44;98909.03;;;12.04;100.00
53908;BME280;40469;47.998;7.794;2022-10-23T01:32:44;98908.38;;;11.88;100.00
53908;BME280;40469;47.998;7.794;2022-10-23T01:37:42;98906.78;;;11.79;100.00
53908;BME280;40469;47.998;7.794;2022-10-23T01:40:19;98899.72;;;11.84;100.00
53908;BME280;40469;47.998;7.794;2022-10-23T01:42:51;98911.19;;;11.75;100.00
53908;BME280;40469;47.998;7.794;2022-10-23T01:45:27;98895.59;;;11.68;100.00
53908;BME280;40469;47.998;7.794;2022-10-23T01:47:56;98900.94;;;11.63;100.00
53908;BME280;40469;47.998;7.794;2022-10-23T01:50:24;98891.31;;;11.65;100.00
53908;BME280;40469;47.998;7.794;2022-10-23T01:52:51;98891.28;;;11.67;100.00
53908;BME280;40469;47.998;7.794;2022-10-23T01:55:17;98894.63;;;11.75;100.00
53908;BME280;40469;47.998;7.794;2022-10-23T01:57:44;98891.09;;;11.77;100.00
53908;BME280;40469;47.998;7.794;2022-10-23T02:00:15;98887.53;;;11.82;100.00
53908;BME280;40469;47.998;7.794;2022-10-23T02:02:42;98882.34;;;11.80;100.00
53908;BME280;40469;47.998;7.794;2022-10-23T02:05:30;98879.72;;;11.80;100.00
53908;BME280;40469;47.998;7.794;2022-10-23T02:07:56;98869.97;;;11.93;100.00
53908;BME280;40469;47.998;7.794;2022-10-23T02:10:26;98871.59;;;12.00;100.00
53908;BME280;40469;47.998;7.794;2022-10-23T02:13:05;98875.09;;;11.99;100.00
53908;BME280;40469;47.998;7.794;2022-10-23T02:15:49;98873.41;;;11.97;100.00
53908;BME280;40469;47.998;7.794;2022-10-23T02:21:16;98856.81;;;11.96;100.00
53908;BME280;40469;47.998;7.794;2022-10-23T02:23:55;98856.84;;;11.94;100.00
53908;BME280;40469;47.998;7.794;2022-10-23T02:28:54;98858.63;;;11.89;100.00
53908;BME280;40469;47.998;7.794;2022-10-23T02:31:22;98858.63;;;11.92;100.00
53908;BME280;40469;47.998;7.794;2022-10-23T02:33:48;98856.00;;;11.89;100.00
53908;BME280;40469;47.998;7.794;2022-10-23T02:36:14;98850.97;;;11.79;100.00
53908;BME280;40469;47.998;7.794;2022-10-23T02:38:42;98849.31;;;11.73;100.00
53908;BME280;40469;47.998;7.794;2022-10-23T02:41:28;98844.94;;;11.73;100.00
53908;BME280;40469;47.998;7.794;2022-10-23T02:49:48;98836.47;;;11.59;100.00
53908;BME280;40469;47.998;7.794;2022-10-23T02:52:24;98831.38;;;11.51;100.00
53908;BME280;40469;47.998;7.794;2022-10-23T02:55:13;98814.84;;;11.49;100.00
53908;BME280;40469;47.998;7.794;2022-10-23T02:58:09;98819.91;;;11.58;100.00
53908;BME280;40469;47.998;7.794;2022-10-23T03:00:36;98818.31;;;11.50;100.00
53908;BME280;40469;47.998;7.794;2022-10-23T03:03:12;98810.53;;;11.45;100.00
53908;BME280;40469;47.998;7.794;2022-10-23T03:05:40;98815.03;;;11.38;100.00
53908;BME280;40469;47.998;7.794;2022-10-23T03:08:10;98801.00;;;11.43;100.00
53908;BME280;40469;47.998;7.794;2022-10-23T03:10:36;98814.94;;;11.42;100.00
53908;BME280;40469;47.998;7.794;2022-10-23T03:13:02;98815.00;;;11.40;100.00
53908;BME280;40469;47.998;7.794;2022-10-23T03:15:28;98813.22;;;11.42;100.00
53908;BME280;40469;47.998;7.794;2022-10-23T03:17:53;98817.41;;;11.52;100.00
53908;BME280;40469;47.998;7.794;2022-10-23T03:20:19;98813.13;;;11.47;100.00
53908;BME280;40469;47.998;7.794;2022-10-23T03:22:44;98807.09;;;11.42;100.00
53908;BME280;40469;47.998;7.794;2022-10-23T03:25:09;98809.03;;;11.30;100.00
53908;BME280;40469;47.998;7.794;2022-10-23T03:27:35;98803.06;;;11.22;100.00
53908;BME280;40469;47.998;7.794;2022-10-23T03:30:01;98797.06;;;11.15;100.00
53908;BME280;40469;47.998;7.794;2022-10-23T03:32:26;98803.94;;;11.23;100.00
53908;BME280;40469;47.998;7.794;2022-10-23T03:34:52;98803.97;;;11.19;100.00
53908;BME280;40469;47.998;7.794;2022-10-23T03:37:17;98810.84;;;11.25;100.00
53908;BME280;40469;47.998;7.794;2022-10-23T03:39:43;98808.09;;;11.34;100.00
53908;BME280;40469;47.998;7.794;2022-10-23T03:42:08;98808.19;;;11.30;100.00
53908;BME280;40469;47.998;7.794;2022-10-23T03:44:33;98797.78;;;11.25;100.00
53908;BME280;40469;47.998;7.794;2022-10-23T03:46:59;98804.88;;;11.17;100.00
53908;BME280;40469;47.998;7.794;2022-10-23T03:49:25;98790.25;;;11.05;100.00
53908;BME280;40469;47.998;7.794;2022-10-23T03:51:50;98794.72;;;10.97;100.00
53908;BME280;40469;47.998;7.794;2022-10-23T03:54:23;98788.47;;;11.07;100.00
53908;BME280;40469;47.998;7.794;2022-10-23T03:56:49;98790.25;;;11.07;100.00
53908;BME280;40469;47.998;7.794;2022-10-23T03:59:15;98791.13;;;11.04;100.00
53908;BME280;40469;47.998;7.794;2022-10-23T04:01:40;98796.34;;;11.06;100.00
53908;BME280;40469;47.998;7.794;2022-10-23T04:04:06;98800.53;;;11.16;100.00
53908;BME280;40469;47.998;7.794;2022-10-23T04:06:31;98791.09;;;11.06;100.00
53908;BME280;40469;47.998;7.794;2022-10-23T04:08:56;98793.88;;;10.95;100.00
53908;BME280;40469;47.998;7.794;2022-10-23T04:11:22;98790.59;;;10.82;100.00
53908;BME280;40469;47.998;7.794;2022-10-23T04:13:47;98788.00;;;10.80;100.00
53908;BME280;40469;47.998;7.794;2022-10-23T04:16:13;98788.00;;;10.79;100.00
53908;BME280;40469;47.998;7.794;2022-10-23T04:18:41;98778.44;;;10.76;100.00
53908;BME280;40469;47.998;7.794;2022-10-23T04:21:07;98778.44;;;10.76;100.00
53908;BME280;40469;47.998;7.794;2022-10-23T04:23:32;98784.63;;;10.71;100.00
53908;BME280;40469;47.998;7.794;2022-10-23T04:25:58;98787.28;;;10.68;100.00
53908;BME280;40469;47.998;7.794;2022-10-23T04:28:24;98795.06;;;10.69;100.00
53908;BME280;40469;47.998;7.794;2022-10-23T04:30:50;98795.97;;;10.70;100.00
53908;BME280;40469;47.998;7.794;2022-10-23T04:33:15;98798.47;;;10.76;100.00
53908;BME280;40469;47.998;7.794;2022-10-23T04:35:41;98799.25;;;10.84;100.00
53908;BME280;40469;47.998;7.794;2022-10-23T04:38:06;98801.00;;;10.84;100.00
53908;BME280;40469;47.998;7.794;2022-10-23T04:40:34;98794.13;;;10.76;100.00
53908;BME280;40469;47.998;7.794;2022-10-23T04:43:00;98799.41;;;10.72;100.00
53908;BME280;40469;47.998;7.794;2022-10-23T04:45:25;98790.75;;;10.68;100.00
53908;BME280;40469;47.998;7.794;2022-10-23T04:47:51;98795.97;;;10.70;100.00
53908;BME280;40469;47.998;7.794;2022-10-23T04:50:18;98785.59;;;10.63;100.00
53908;BME280;40469;47.998;7.794;2022-10-23T04:52:44;98790.84;;;10.60;100.00
53908;BME280;40469;47.998;7.794;2022-10-23T04:55:09;98782.97;;;10.65;100.00
53908;BME280;40469;47.998;7.794;2022-10-23T04:57:34;98776.88;;;10.65;100.00
53908;BME280;40469;47.998;7.794;2022-10-23T05:00:00;98776.88;;;10.65;100.00
53908;BME280;40469;47.998;7.794;2022-10-23T05:02:26;98771.69;;;10.61;100.00
53908;BME280;40469;47.998;7.794;2022-10-23T05:04:52;98776.03;;;10.62;100.00
53908;BME280;40469;47.998;7.794;2022-10-23T05:07:17;98791.63;;;10.67;100.00
53908;BME280;40469;47.998;7.794;2022-10-23T05:09:42;98803.84;;;10.65;100.00
53908;BME280;40469;47.998;7.794;2022-10-23T05:12:08;98774.13;;;10.75;100.00
53908;BME280;40469;47.998;7.794;2022-10-23T05:14:33;98773.19;;;10.78;100.00
53908;BME280;40469;47.998;7.794;2022-10-23T05:17:06;98793.06;;;10.90;100.00
53908;BME280;40469;47.998;7.794;2022-10-23T05:19:36;98772.09;;;10.96;100.00
53908;BME280;40469;47.998;7.794;2022-10-23T05:22:04;98738.22;;;10.90;100.00
53908;BME280;40469;47.998;7.794;2022-10-23T05:24:29;98768.94;;;10.72;100.00
53908;BME280;40469;47.998;7.794;2022-10-23T05:26:55;98788.16;;;10.68;100.00
53908;BME280;40469;47.998;7.794;2022-10-23T05:29:20;98748.16;;;10.66;100.00
53908;BME280;40469;47.998;7.794;2022-10-23T05:31:48;98784.78;;;10.58;100.00
53908;BME280;40469;47.998;7.794;2022-10-23T05:34:16;98794.66;;;10.33;100.00
53908;BME280;40469;47.998;7.794;2022-10-23T05:36:44;98744.91;;;10.49;100.00
53908;BME280;40469;47.998;7.794;2022-10-23T05:39:09;98757.84;;;10.56;100.00
53908;BME280;40469;47.998;7.794;2022-10-23T05:41:35;98803.06;;;10.58;100.00
53908;BME280;40469;47.998;7.794;2022-10-23T05:44:00;98763.19;;;10.47;100.00
53908;BME280;40469;47.998;7.794;2022-10-23T05:46:25;98747.31;;;10.62;100.00
53908;BME280;40469;47.998;7.794;2022-10-23T05:48:52;98752.47;;;10.67;100.00
53908;BME280;40469;47.998;7.794;2022-10-23T05:51:18;98758.56;;;10.68;100.00
53908;BME280;40469;47.998;7.794;2022-10-23T05:53:51;98772.50;;;10.65;100.00
53908;BME280;40469;47.998;7.794;2022-10-23T05:56:17;98781.13;;;10.73;100.00
53908;BME280;40469;47.998;7.794;2022-10-23T05:58:43;98769.91;;;10.65;100.00
53908;BME280;40469;47.998;7.794;2022-10-23T06:01:11;98769.06;;;10.63;100.00
53908;BME280;40469;47.998;7.794;2022-10-23T06:03:37;98763.97;;;10.55;100.00
53908;BME280;40469;47.998;7.794;2022-10-23T06:06:03;98780.47;;;10.57;100.00
53908;BME280;40469;47.998;7.794;2022-10-23T06:08:29;98766.47;;;10.63;100.00
53908;BME280;40469;47.998;7.794;2022-10-23T06:10:55;98730.66;;;10.71;100.00
53908;BME280;40469;47.998;7.794;2022-10-23T06:13:20;98757.63;;;10.72;100.00
53908;BME280;40469;47.998;7.794;2022-10-23T06:15:46;98781.00;;;10.81;100.00
53908;BME280;40469;47.998;7.794;2022-10-23T06:18:11;98762.75;;;10.78;100.00
53908;BME280;40469;47.998;7.794;2022-10-23T06:20:37;98740.00;;;10.88;100.00
53908;BME280;40469;47.998;7.794;2022-10-23T06:23:06;98756.47;;;10.93;100.00
53908;BME280;40469;47.998;7.794;2022-10-23T06:25:32;98771.25;;;10.94;100.00
53908;BME280;40469;47.998;7.794;2022-10-23T06:27:57;98754.84;;;10.86;100.00
53908;BME280;40469;47.998;7.794;2022-10-23T06:30:23;98766.13;;;10.86;100.00
53908;BME280;40469;47.998;7.794;2022-10-23T06:32:48;98767.91;;;10.84;100.00
53908;BME280;40469;47.998;7.794;2022-10-23T06:35:14;98778.59;;;10.66;100.00
53908;BME280;40469;47.998;7.794;2022-10-23T06:37:39;98783.88;;;10.61;100.00
53908;BME280;40469;47.998;7.794;2022-10-23T06:40:06;98783.16;;;10.50;100.00
53908;BME280;40469;47.998;7.794;2022-10-23T06:42:33;98795.31;;;10.52;100.00
53908;BME280;40469;47.998;7.794;2022-10-23T06:44:58;98784.06;;;10.46;100.00
53908;BME280;40469;47.998;7.794;2022-10-23T06:47:23;98768.53;;;10.36;100.00
53908;BME280;40469;47.998;7.794;2022-10-23T06:49:49;98783.13;;;10.51;100.00
53908;BME280;40469;47.998;7.794;2022-10-23T06:52:14;98794.53;;;10.42;100.00
53908;BME280;40469;47.998;7.794;2022-10-23T06:54:39;98780.53;;;10.51;100.00
53908;BME280;40469;47.998;7.794;2022-10-23T06:57:05;98784.91;;;10.48;100.00
53908;BME280;40469;47.998;7.794;2022-10-23T06:59:30;98775.25;;;10.56;100.00
53908;BME280;40469;47.998;7.794;2022-10-23T07:01:56;98755.09;;;10.64;100.00
53908;BME280;40469;47.998;7.794;2022-10-23T07:04:21;98767.16;;;10.76;100.00
53908;BME280;40469;47.998;7.794;2022-10-23T07:06:46;98766.88;;;10.96;100.00
53908;BME280;40469;47.998;7.794;2022-10-23T07:09:12;98751.91;;;11.06;100.00
53908;BME280;40469;47.998;7.794;2022-10-23T07:11:37;98740.44;;;11.16;100.00
53908;BME280;40469;47.998;7.794;2022-10-23T07:14:02;98761.81;;;11.41;100.00
53908;BME280;40469;47.998;7.794;2022-10-23T07:16:28;98761.66;;;11.50;100.00
53908;BME280;40469;47.998;7.794;2022-10-23T07:18:55;98751.88;;;11.62;100.00
53908;BME280;40469;47.998;7.794;2022-10-23T07:21:30;98759.63;;;11.68;100.00
53908;BME280;40469;47.998;7.794;2022-10-23T07:23:57;98756.06;;;11.72;100.00
53908;BME280;40469;47.998;7.794;2022-10-23T07:26:22;98754.13;;;11.82;100.00
53908;BME280;40469;47.998;7.794;2022-10-23T07:28:48;98760.97;;;11.92;100.00
53908;BME280;40469;47.998;7.794;2022-10-23T07:31:16;98756.41;;;12.02;100.00
53908;BME280;40469;47.998;7.794;2022-10-23T07:33:41;98763.31;;;12.06;100.00
53908;BME280;40469;47.998;7.794;2022-10-23T07:36:08;98766.78;;;12.08;100.00
53908;BME280;40469;47.998;7.794;2022-10-23T07:38:34;98753.50;;;12.17;100.00
53908;BME280;40469;47.998;7.794;2022-10-23T07:40:59;98747.28;;;12.23;100.00
53908;BME280;40469;47.998;7.794;2022-10-23T07:43:25;98748.94;;;12.28;100.00
53908;BME280;40469;47.998;7.794;2022-10-23T07:45:51;98753.97;;;12.38;100.00
53908;BME280;40469;47.998;7.794;2022-10-23T07:48:18;98748.53;;;12.47;100.00
53908;BME280;40469;47.998;7.794;2022-10-23T07:50:45;98749.88;;;12.66;100.00
53908;BME280;40469;47.998;7.794;2022-10-23T07:53:18;98760.09;;;12.77;100.00
53908;BME280;40469;47.998;7.794;2022-10-23T07:55:57;98745.00;;;12.90;100.00
53908;BME280;40469;47.998;7.794;2022-10-23T07:58:23;98754.25;;;13.05;100.00
53908;BME280;40469;47.998;7.794;2022-10-23T08:00:53;98746.56;;;13.36;100.00
53908;BME280;40469;47.998;7.794;2022-10-23T08:03:19;98754.94;;;13.51;100.00
53908;BME280;40469;47.998;7.794;2022-10-23T08:05:45;98748.44;;;13.65;100.00
53908;BME280;40469;47.998;7.794;2022-10-23T08:08:10;98747.66;;;13.95;100.00
53908;BME280;40469;47.998;7.794;2022-10-23T08:10:36;98752.06;;;14.26;100.00
53908;BME280;40469;47.998;7.794;2022-10-23T08:13:01;98743.84;;;14.69;100.00
53908;BME280;40469;47.998;7.794;2022-10-23T08:15:26;98739.06;;;15.10;100.00
53908;BME280;40469;47.998;7.794;2022-10-23T08:17:52;98736.41;;;15.65;100.00
53908;BME280;40469;47.998;7.794;2022-10-23T08:20:17;98728.25;;;15.98;100.00
53908;BME280;40469;47.998;7.794;2022-10-23T08:22:43;98728.34;;;16.44;100.00
53908;BME280;40469;47.998;7.794;2022-10-23T08:25:08;98721.25;;;16.70;100.00
53908;BME280;40469;47.998;7.794;2022-10-23T08:27:34;98721.81;;;17.22;100.00
53908;BME280;40469;47.998;7.794;2022-10-23T08:29:59;98711.25;;;17.44;100.00
53908;BME280;40469;47.998;7.794;2022-10-23T08:32:28;98707.22;;;17.76;100.00
53908;BME280;40469;47.998;7.794;2022-10-23T08:34:53;98715.81;;;17.81;100.00
53908;BME280;40469;47.998;7.794;2022-10-23T08:37:19;98710.19;;;18.10;100.00
53908;BME280;40469;47.998;7.794;2022-10-23T08:39:44;98713.13;;;18.23;100.00
53908;BME280;40469;47.998;7.794;2022-10-23T08:42:21;98705.88;;;18.47;100.00
53908;BME280;40469;47.998;7.794;2022-10-23T08:45:27;98697.66;;;18.34;100.00
53908;BME280;40469;47.998;7.794;2022-10-23T08:47:57;98694.00;;;18.36;100.00
53908;BME280;40469;47.998;7.794;2022-10-23T08:50:31;98693.38;;;18.50;100.00
53908;BME280;40469;47.998;7.794;2022-10-23T08:53:04;98683.44;;;18.36;100.00
53908;BME280;40469;47.998;7.794;2022-10-23T08:55:44;98688.81;;;18.16;100.00
53908;BME280;40469;47.998;7.794;2022-10-23T08:58:17;98683.53;;;18.54;100.00
53908;BME280;40469;47.998;7.794;2022-10-23T09:00:48;98683.13;;;17.63;100.00
53908;BME280;40469;47.998;7.794;2022-10-23T09:03:14;98689.53;;;17.78;100.00
53908;BME280;40469;47.998;7.794;2022-10-23T09:19:17;98675.41;;;17.59;100.00
53908;BME280;40469;47.998;7.794;2022-10-23T09:21:47;98672.22;;;17.30;100.00
53908;BME280;40469;47.998;7.794;2022-10-23T09:24:22;98669.94;;;17.63;100.00
53908;BME280;40469;47.998;7.794;2022-10-23T09:26:50;98671.19;;;17.55;100.00
53908;BME280;40469;47.998;7.794;2022-10-23T09:29:27;98667.16;;;17.46;100.00
53908;BME280;40469;47.998;7.794;2022-10-23T09:31:58;98667.53;;;17.78;100.00
53908;BME280;40469;47.998;7.794;2022-10-23T09:34:26;98672.56;;;18.05;100.00
53908;BME280;40469;47.998;7.794;2022-10-23T09:36:55;98660.50;;;17.99;100.00
53908;BME280;40469;47.998;7.794;2022-10-23T09:39:34;98648.88;;;17.83;100.00
53908;BME280;40469;47.998;7.794;2022-10-23T09:42:18;98641.16;;;17.57;100.00
53908;BME280;40469;47.998;7.794;2022-10-23T09:44:50;98648.88;;;17.21;100.00
53908;BME280;40469;47.998;7.794;2022-10-23T09:47:18;98647.25;;;17.39;100.00
53908;BME280;40469;47.998;7.794;2022-10-23T09:50:03;98648.69;;;17.67;100.00
53908;BME280;40469;47.998;7.794;2022-10-23T09:52:34;98647.41;;;17.96;100.00
53908;BME280;40469;47.998;7.794;2022-10-23T09:55:02;98642.66;;;18.04;100.00
53908;BME280;40469;47.998;7.794;2022-10-23T09:57:40;98643.22;;;17.92;100.00
53908;BME280;40469;47.998;7.794;2022-10-23T10:02:37;98641.16;;;17.37;100.00
53908;BME280;40469;47.998;7.794;2022-10-23T10:05:22;98640.16;;;17.39;100.00
53908;BME280;40469;47.998;7.794;2022-10-23T10:10:51;98645.25;;;17.44;100.00
53908;BME280;40469;47.998;7.794;2022-10-23T10:21:27;98650.28;;;18.10;100.00
53908;BME280;40469;47.998;7.794;2022-10-23T10:24:05;98646.75;;;18.30;100.00
53908;BME280;40469;47.998;7.794;2022-10-23T10:26:46;98634.19;;;18.53;100.00
53908;BME280;40469;47.998;7.794;2022-10-23T10:45:53;98628.81;;;18.18;100.00
53908;BME280;40469;47.998;7.794;2022-10-23T10:48:34;98636.84;;;18.53;100.00
53908;BME280;40469;47.998;7.794;2022-10-23T10:51:11;98641.34;;;18.89;100.00
53908;BME280;40469;47.998;7.794;2022-10-23T10:54:04;98634.19;;;18.72;100.00
53908;BME280;40469;47.998;7.794;2022-10-23T10:56:34;98626.06;;;18.57;100.00
53908;BME280;40469;47.998;7.794;2022-10-23T10:59:15;98618.84;;;18.61;100.00
53908;BME280;40469;47.998;7.794;2022-10-23T11:01:45;98620.63;;;18.61;100.00
53908;BME280;40469;47.998;7.794;2022-10-23T11:06:50;98606.19;;;19.04;100.00
53908;BME280;40469;47.998;7.794;2022-10-23T11:09:21;98606.50;;;19.16;100.00
53908;BME280;40469;47.998;7.794;2022-10-23T11:11:49;98602.22;;;19.13;100.00
53908;BME280;40469;47.998;7.794;2022-10-23T11:14:16;98604.97;;;19.62;100.00
53908;BME280;40469;47.998;7.794;2022-10-23T11:16:49;98592.59;;;19.63;100.00
53908;BME280;40469;47.998;7.794;2022-10-23T11:19:27;98599.22;;;20.05;100.00
53908;BME280;40469;47.998;7.794;2022-10-23T11:22:07;98585.16;;;19.54;100.00
53908;BME280;40469;47.998;7.794;2022-10-23T11:33:46;98578.19;;;19.51;100.00
53908;BME280;40469;47.998;7.794;2022-10-23T11:36:19;98572.63;;;19.40;100.00
53908;BME280;40469;47.998;7.794;2022-10-23T11:39:11;98569.31;;;19.19;100.00
53908;BME280;40469;47.998;7.794;2022-10-23T11:41:47;98570.44;;;19.30;100.00
53908;BME280;40469;47.998;7.794;2022-10-23T11:44:47;98558.28;;;19.44;100.00
53908;BME280;40469;47.998;7.794;2022-10-23T11:47:31;98548.03;;;19.38;100.00
53908;BME280;40469;47.998;7.794;2022-10-23T11:50:30;98540.66;;;19.43;100.00
53908;BME280;40469;47.998;7.794;2022-10-23T11:52:58;98535.47;;;19.75;100.00
53908;BME280;40469;47.998;7.794;2022-10-23T11:55:29;98538.66;;;20.29;100.00
53908;BME280;40469;47.998;7.794;2022-10-23T11:58:07;98545.28;;;20.84;100.00
53908;BME280;40469;47.998;7.794;2022-10-23T12:00:38;98547.97;;;21.43;100.00
53908;BME280;40469;47.998;7.794;2022-10-23T12:03:05;98548.06;;;21.85;100.00
53908;BME280;40469;47.998;7.794;2022-10-23T12:05:41;98547.06;;;21.87;100.00
53908;BME280;40469;47.998;7.794;2022-10-23T12:08:24;98527.94;;;21.95;100.00
53908;BME280;40469;47.998;7.794;2022-10-23T12:10:50;98525.34;;;22.22;100.00
53908;BME280;40469;47.998;7.794;2022-10-23T12:15:53;98509.25;;;23.05;100.00
53908;BME280;40469;47.998;7.794;2022-10-23T12:18:19;98507.38;;;22.93;100.00
53908;BME280;40469;47.998;7.794;2022-10-23T12:20:55;98508.34;;;22.92;100.00
53908;BME280;40469;47.998;7.794;2022-10-23T12:24:00;98504.28;;;22.86;100.00
53908;BME280;40469;47.998;7.794;2022-10-23T12:37:22;98479.25;;;24.16;100.00
53908;BME280;40469;47.998;7.794;2022-10-23T12:39:54;98475.72;;;23.78;100.00
53908;BME280;40469;47.998;7.794;2022-10-23T12:42:24;98465.19;;;24.14;100.00
53908;BME280;40469;47.998;7.794;2022-10-23T12:45:01;98474.06;;;22.87;100.00
53908;BME280;40469;47.998;7.794;2022-10-23T12:47:27;98469.53;;;22.62;100.00
53908;BME280;40469;47.998;7.794;2022-10-23T12:49:54;98465.25;;;22.47;100.00
53908;BME280;40469;47.998;7.794;2022-10-23T12:52:20;98456.13;;;22.64;100.00
53908;BME280;40469;47.998;7.794;2022-10-23T12:54:48;98448.38;;;22.06;100.00
53908;BME280;40469;47.998;7.794;2022-10-23T12:59:45;98443.81;;;21.67;100.00
53908;BME280;40469;47.998;7.794;2022-10-23T13:02:37;98444.38;;;22.13;100.00
53908;BME280;40469;47.998;7.794;2022-10-23T13:05:05;98440.72;;;22.14;100.00
53908;BME280;40469;47.998;7.794;2022-10-23T13:07:36;98441.69;;;21.86;100.00
53908;BME280;40469;47.998;7.794;2022-10-23T13:10:05;98430.16;;;22.00;100.00
53908;BME280;40469;47.998;7.794;2022-10-23T13:12:35;98438.47;;;21.81;100.00
53908;BME280;40469;47.998;7.794;2022-10-23T13:17:37;98425.03;;;21.70;100.00
53908;BME280;40469;47.998;7.794;2022-10-23T13:20:22;98428.91;;;21.78;100.00
53908;BME280;40469;47.998;7.794;2022-10-23T13:22:51;98417.84;;;21.57;100.00
53908;BME280;40469;47.998;7.794;2022-10-23T13:25:20;98413.78;;;21.23;100.00
53908;BME280;40469;47.998;7.794;2022-10-23T13:27:46;98415.09;;;21.01;100.00
53908;BME280;40469;47.998;7.794;2022-10-23T13:30:33;98412.81;;;21.10;100.00
53908;BME280;40469;47.998;7.794;2022-10-23T13:32:58;98412.91;;;21.08;100.00
53908;BME280;40469;47.998;7.794;2022-10-23T13:35:24;98404.56;;;21.29;100.00
53908;BME280;40469;47.998;7.794;2022-10-23T13:37:50;98398.03;;;21.49;100.00
53908;BME280;40469;47.998;7.794;2022-10-23T13:40:23;98400.78;;;21.47;100.00
53908;BME280;40469;47.998;7.794;2022-10-23T13:42:50;98405.50;;;21.28;100.00
53908;BME280;40469;47.998;7.794;2022-10-23T13:45:24;98397.38;;;21.16;100.00
53908;BME280;40469;47.998;7.794;2022-10-23T13:47:50;98398.97;;;21.19;100.00
53908;BME280;40469;47.998;7.794;2022-10-23T13:50:15;98397.34;;;21.31;100.00
53908;BME280;40469;47.998;7.794;2022-10-23T13:52:41;98404.97;;;21.51;100.00
53908;BME280;40469;47.998;7.794;2022-10-23T13:55:22;98403.47;;;21.74;100.00
53908;BME280;40469;47.998;7.794;2022-10-23T13:57:48;98399.00;;;21.48;100.00
53908;BME280;40469;47.998;7.794;2022-10-23T14:00:13;98406.47;;;21.12;100.00
53908;BME280;40469;47.998;7.794;2022-10-23T14:02:39;98410.56;;;21.18;100.00
53908;BME280;40469;47.998;7.794;2022-10-23T14:05:05;98405.22;;;21.32;100.00
53908;BME280;40469;47.998;7.794;2022-10-23T14:07:30;98394.53;;;21.19;100.00
53908;BME280;40469;47.998;7.794;2022-10-23T14:09:55;98417.69;;;21.46;100.00
53908;BME280;40469;47.998;7.794;2022-10-23T14:12:21;98398.78;;;21.51;100.00
53908;BME280;40469;47.998;7.794;2022-10-23T14:14:50;98395.38;;;21.20;100.00
53908;BME280;40469;47.998;7.794;2022-10-23T14:17:16;98418.59;;;21.45;100.00
53908;BME280;40469;47.998;7.794;2022-10-23T14:19:41;98411.56;;;21.73;100.00
53908;BME280;40469;47.998;7.794;2022-10-23T14:22:07;98416.22;;;21.69;100.00
53908;BME280;40469;47.998;7.794;2022-10-23T14:24:32;98428.22;;;21.48;100.00
53908;BME280;40469;47.998;7.794;2022-10-23T14:26:58;98415.28;;;21.13;100.00
53908;BME280;40469;47.998;7.794;2022-10-23T14:29:23;98413.84;;;20.93;100.00
53908;BME280;40469;47.998;7.794;2022-10-23T14:31:49;98425.88;;;20.84;100.00
53908;BME280;40469;47.998;7.794;2022-10-23T14:34:14;98403.72;;;20.85;100.00
53908;BME280;40469;47.998;7.794;2022-10-23T14:36:40;98412.25;;;21.05;100.00
53908;BME280;40469;47.998;7.794;2022-10-23T14:39:05;98411.56;;;21.30;100.00